createdAt,value
2022-08-01T00:00:16.738Z,79.1
2022-08-01T00:01:17.159Z,79.2
2022-08-01T00:02:17.147Z,79.0
2022-08-01T00:03:16.594Z,79.1
2022-08-01T00:04:17.023Z,79.2
2022-08-01T00:05:16.480Z,79.4
2022-08-01T00:06:16.947Z,79.4
2022-08-01T00:07:17.426Z,79.3
2022-08-01T00:08:16.875Z,79.5
2022-08-01T00:09:24.622Z,79.6
2022-08-01T00:10:17.115Z,79.7
2022-08-01T00:11:16.560Z,79.9
2022-08-01T00:12:17.194Z,79.9
2022-08-01T00:13:16.643Z,80.0
2022-08-01T00:14:17.086Z,79.9
2022-08-01T00:15:16.546Z,80.0
2022-08-01T00:16:16.966Z,80.1
2022-08-01T00:17:17.384Z,80.1
2022-08-01T00:18:16.818Z,80.1
2022-08-01T00:19:17.251Z,80.5
2022-08-01T00:20:16.707Z,80.5
2022-08-01T00:21:17.193Z,80.7
2022-08-01T00:22:16.919Z,80.6
2022-08-01T00:23:17.369Z,80.6
2022-08-01T00:24:18.002Z,80.5
2022-08-01T00:25:16.471Z,80.7
2022-08-01T00:26:16.941Z,81.0
2022-08-01T00:27:17.358Z,81.1
2022-08-01T00:28:16.771Z,81.2
2022-08-01T00:30:01.989Z,81.4
2022-08-01T00:30:16.660Z,81.4
2022-08-01T00:31:17.097Z,81.4
2022-08-01T00:32:16.979Z,81.6
2022-08-01T00:33:16.394Z,81.8
2022-08-01T00:34:16.813Z,81.8
2022-08-01T00:35:17.265Z,81.9
2022-08-01T00:36:16.736Z,81.7
2022-08-01T00:37:17.196Z,81.6
2022-08-01T00:38:16.665Z,81.8
2022-08-01T00:39:17.166Z,81.5
2022-08-01T00:40:16.659Z,81.8
2022-08-01T00:41:17.127Z,81.7
2022-08-01T00:42:17.397Z,81.7
2022-08-01T00:43:16.822Z,81.9
2022-08-01T00:44:17.237Z,81.8
2022-08-01T00:45:16.686Z,81.7
2022-08-01T00:46:17.094Z,81.7
2022-08-01T00:47:16.514Z,81.9
2022-08-01T00:48:16.959Z,81.7
2022-08-01T00:49:17.515Z,81.7
2022-08-01T00:50:16.973Z,82.0
2022-08-01T00:51:17.428Z,82.0
2022-08-01T00:52:17.086Z,81.8
2022-08-01T00:53:19.270Z,81.8
2022-08-01T00:54:17.275Z,81.8
2022-08-01T00:55:16.739Z,82.1
2022-08-01T00:56:17.231Z,81.9
2022-08-01T00:58:01.574Z,82.0
2022-08-01T00:58:18.031Z,82.0
2022-08-01T00:59:16.448Z,82.0
2022-08-01T01:00:17.275Z,82.4
2022-08-01T01:01:16.740Z,82.6
2022-08-01T01:02:17.369Z,82.7
2022-08-01T01:03:16.792Z,82.8
2022-08-01T01:04:17.243Z,82.8
2022-08-01T01:05:16.693Z,82.8
2022-08-01T01:06:17.170Z,82.7
2022-08-01T01:07:16.619Z,82.8
2022-08-01T01:08:17.066Z,82.7
2022-08-01T01:09:16.525Z,82.6
2022-08-01T01:10:17.000Z,82.7
2022-08-01T01:11:16.446Z,82.7
2022-08-01T01:12:16.979Z,82.8
2022-08-01T01:13:17.381Z,82.7
2022-08-01T01:14:16.809Z,82.6
2022-08-01T01:15:17.245Z,82.8
2022-08-01T01:16:16.676Z,82.8
2022-08-01T01:17:31.359Z,82.8
2022-08-01T01:18:16.604Z,82.8
2022-08-01T01:19:17.052Z,82.7
2022-08-01T01:20:16.528Z,82.9
2022-08-01T01:21:16.988Z,82.9
2022-08-01T01:22:16.687Z,83.0
2022-08-01T01:23:17.138Z,83.1
2022-08-01T01:24:16.597Z,83.1
2022-08-01T01:25:17.054Z,83.1
2022-08-01T01:26:16.477Z,83.1
2022-08-01T01:27:16.949Z,82.9
2022-08-01T01:28:17.387Z,82.6
2022-08-01T01:29:16.817Z,82.9
2022-08-01T01:30:17.253Z,82.9
2022-08-01T01:31:16.674Z,82.6
2022-08-01T01:32:16.397Z,82.6
2022-08-01T01:33:16.853Z,82.8
2022-08-01T01:34:17.359Z,82.7
2022-08-01T01:35:16.831Z,82.6
2022-08-01T01:36:17.286Z,82.6
2022-08-01T01:37:16.765Z,82.8
2022-08-01T01:38:17.238Z,82.8
2022-08-01T01:39:16.713Z,82.4
2022-08-01T01:40:17.194Z,82.5
2022-08-01T01:41:16.607Z,82.4
2022-08-01T01:42:16.965Z,82.5
2022-08-01T01:43:17.402Z,82.6
2022-08-01T01:44:16.825Z,82.8
2022-08-01T01:45:17.438Z,82.7
2022-08-01T01:46:16.850Z,82.6
2022-08-01T01:47:17.281Z,82.6
2022-08-01T01:48:16.744Z,82.6
2022-08-01T01:49:17.321Z,82.4
2022-08-01T01:50:16.815Z,82.4
2022-08-01T01:51:17.263Z,82.4
2022-08-01T01:52:16.853Z,82.6
2022-08-01T01:53:17.309Z,82.5
2022-08-01T01:54:16.791Z,82.7
2022-08-01T01:55:17.223Z,82.5
2022-08-01T01:56:16.650Z,82.4
2022-08-01T01:57:17.064Z,82.5
2022-08-01T01:58:16.489Z,82.4
2022-08-01T01:59:25.939Z,82.5
2022-08-01T02:00:16.431Z,82.7
2022-08-01T02:01:38.755Z,82.7
2022-08-01T02:02:18.030Z,82.9
2022-08-01T02:03:16.596Z,83.1
2022-08-01T02:04:17.050Z,83.2
2022-08-01T02:05:16.527Z,83.1
2022-08-01T02:06:16.991Z,83.2
2022-08-01T02:07:16.451Z,83.1
2022-08-01T02:08:16.935Z,83.1
2022-08-01T02:09:17.398Z,83.3
2022-08-01T02:10:16.862Z,83.4
2022-08-01T02:11:17.296Z,83.3
2022-08-01T02:12:17.430Z,83.4
2022-08-01T02:13:17.329Z,83.4
2022-08-01T02:14:16.706Z,83.5
2022-08-01T02:15:17.153Z,83.5
2022-08-01T02:16:16.602Z,83.2
2022-08-01T02:17:17.027Z,83.2
2022-08-01T02:18:16.499Z,83.3
2022-08-01T02:19:16.956Z,83.3
2022-08-01T02:20:17.460Z,83.2
2022-08-01T02:21:16.925Z,83.3
2022-08-01T02:22:17.047Z,83.4
2022-08-01T02:23:16.498Z,83.3
2022-08-01T02:24:16.961Z,83.3
2022-08-01T02:25:17.404Z,83.3
2022-08-01T02:26:16.839Z,83.2
2022-08-01T02:27:17.279Z,83.2
2022-08-01T02:28:16.728Z,83.4
2022-08-01T02:29:17.183Z,83.6
2022-08-01T02:30:16.607Z,83.7
2022-08-01T02:31:17.040Z,83.6
2022-08-01T02:32:16.492Z,83.7
2022-08-01T02:33:16.930Z,83.7
2022-08-01T02:34:17.386Z,83.6
2022-08-01T02:35:16.842Z,83.8
2022-08-01T02:36:31.515Z,83.8
2022-08-01T02:37:17.319Z,83.9
2022-08-01T02:38:16.756Z,84.0
2022-08-01T02:39:17.205Z,84.1
2022-08-01T02:40:16.629Z,84.1
2022-08-01T02:41:17.134Z,84.2
2022-08-01T02:42:16.946Z,84.2
2022-08-01T02:43:17.353Z,84.3
2022-08-01T02:44:16.781Z,84.5
2022-08-01T02:45:17.252Z,84.3
2022-08-01T02:46:16.712Z,84.4
2022-08-01T02:47:17.156Z,84.5
2022-08-01T02:48:16.613Z,84.6
2022-08-01T02:49:17.249Z,84.7
2022-08-01T02:50:16.750Z,84.8
2022-08-01T02:51:17.249Z,84.9
2022-08-01T02:52:16.732Z,85.0
2022-08-01T02:53:17.179Z,85.0
2022-08-01T02:54:16.641Z,85.0
2022-08-01T02:55:17.056Z,85.0
2022-08-01T02:56:16.506Z,85.1
2022-08-01T02:57:19.353Z,85.2
2022-08-01T02:58:18.410Z,85.2
2022-08-01T02:59:22.576Z,85.3
2022-08-01T03:00:17.058Z,85.1
2022-08-01T03:01:16.654Z,85.1
2022-08-01T03:02:17.138Z,85.1
2022-08-01T03:03:16.583Z,85.2
2022-08-01T03:04:17.056Z,85.5
2022-08-01T03:05:16.541Z,85.5
2022-08-01T03:06:17.019Z,85.7
2022-08-01T03:07:16.782Z,85.7
2022-08-01T03:08:17.201Z,85.5
2022-08-01T03:09:16.986Z,85.7
2022-08-01T03:10:16.490Z,85.5
2022-08-01T03:11:16.966Z,85.6
2022-08-01T03:12:17.366Z,85.7
2022-08-01T03:13:16.880Z,85.6
2022-08-01T03:14:17.352Z,85.6
2022-08-01T03:15:16.838Z,85.6
2022-08-01T03:16:17.312Z,85.7
2022-08-01T03:17:16.740Z,85.4
2022-08-01T03:18:17.156Z,85.7
2022-08-01T03:19:16.598Z,85.7
2022-08-01T03:20:17.047Z,85.8
2022-08-01T03:21:16.469Z,85.7
2022-08-01T03:22:17.381Z,85.9
2022-08-01T03:23:16.794Z,85.8
2022-08-01T03:24:17.247Z,85.8
2022-08-01T03:25:16.709Z,85.8
2022-08-01T03:26:17.160Z,85.7
2022-08-01T03:27:16.626Z,85.9
2022-08-01T03:28:17.075Z,85.9
2022-08-01T03:29:16.525Z,85.7
2022-08-01T03:30:17.029Z,86.0
2022-08-01T03:31:16.453Z,85.8
2022-08-01T03:32:16.815Z,85.7
2022-08-01T03:33:17.228Z,85.7
2022-08-01T03:34:16.665Z,85.7
2022-08-01T03:35:17.103Z,85.7
2022-08-01T03:36:16.531Z,85.8
2022-08-01T03:37:16.959Z,85.8
2022-08-01T03:38:17.472Z,85.8
2022-08-01T03:39:16.962Z,85.7
2022-08-01T03:40:17.446Z,85.8
2022-08-01T03:41:17.086Z,85.8
2022-08-01T03:42:16.847Z,85.9
2022-08-01T03:43:17.292Z,86.0
2022-08-01T03:44:16.750Z,86.3
2022-08-01T03:45:17.246Z,85.9
2022-08-01T03:46:16.710Z,85.9
2022-08-01T03:47:17.130Z,86.0
2022-08-01T03:48:16.584Z,85.9
2022-08-01T03:49:17.185Z,86.1
2022-08-01T03:50:16.621Z,86.2
2022-08-01T03:51:17.057Z,86.1
2022-08-01T03:52:16.810Z,86.2
2022-08-01T03:53:17.276Z,86.1
2022-08-01T03:54:16.723Z,86.3
2022-08-01T03:55:17.189Z,86.3
2022-08-01T03:56:16.653Z,86.4
2022-08-01T03:57:36.473Z,86.4
2022-08-01T03:58:17.149Z,86.5
2022-08-01T03:59:16.619Z,86.2
2022-08-01T04:00:17.067Z,86.3
2022-08-01T04:01:16.606Z,86.2
2022-08-01T04:02:17.369Z,86.8
2022-08-01T04:03:16.791Z,86.6
2022-08-01T04:04:17.202Z,86.7
2022-08-01T04:05:16.631Z,86.8
2022-08-01T04:06:17.060Z,86.8
2022-08-01T04:07:16.476Z,86.8
2022-08-01T04:08:16.933Z,86.8
2022-08-01T04:09:17.383Z,86.6
2022-08-01T04:10:16.856Z,86.4
2022-08-01T04:11:17.317Z,86.3
2022-08-01T04:12:16.820Z,86.2
2022-08-01T04:13:17.298Z,86.0
2022-08-01T04:14:16.742Z,86.3
2022-08-01T04:15:17.174Z,85.8
2022-08-01T04:16:16.590Z,85.8
2022-08-01T04:17:17.276Z,85.8
2022-08-01T04:18:16.817Z,85.8
2022-08-01T04:19:17.233Z,85.9
2022-08-01T04:20:16.681Z,85.7
2022-08-01T04:21:17.136Z,85.6
2022-08-01T04:22:16.838Z,85.6
2022-08-01T04:23:17.287Z,85.5
2022-08-01T04:24:16.771Z,85.3
2022-08-01T04:25:17.256Z,85.2
2022-08-01T04:26:16.706Z,85.2
2022-08-01T04:27:48.816Z,85.0
2022-08-01T04:28:16.695Z,85.1
2022-08-01T04:29:17.150Z,85.1
2022-08-01T04:30:21.181Z,85.1
2022-08-01T04:31:16.657Z,85.1
2022-08-01T04:32:16.505Z,85.2
2022-08-01T04:33:16.915Z,84.9
2022-08-01T04:34:17.349Z,84.8
2022-08-01T04:36:03.158Z,84.7
2022-08-01T04:36:17.258Z,84.7
2022-08-01T04:37:16.697Z,84.6
2022-08-01T04:38:17.156Z,84.5
2022-08-01T04:39:16.617Z,84.2
2022-08-01T04:40:17.118Z,84.1
2022-08-01T04:41:16.611Z,84.1
2022-08-01T04:42:26.165Z,83.7
2022-08-01T04:43:16.782Z,83.4
2022-08-01T04:44:17.248Z,83.2
2022-08-01T04:45:16.710Z,83.2
2022-08-01T04:46:17.124Z,82.9
2022-08-01T04:47:16.582Z,83.0
2022-08-01T04:48:17.006Z,82.9
2022-08-01T04:49:16.581Z,82.9
2022-08-01T04:50:17.027Z,82.6
2022-08-01T04:51:16.615Z,82.5
2022-08-01T04:52:24.732Z,82.2
2022-08-01T04:53:17.846Z,81.9
2022-08-01T04:54:16.941Z,81.7
2022-08-01T04:55:17.420Z,81.8
2022-08-01T04:56:16.882Z,82.0
2022-08-01T04:57:17.377Z,82.2
2022-08-01T04:58:19.103Z,81.9
2022-08-01T04:59:20.446Z,81.9
2022-08-01T05:00:16.936Z,81.3
2022-08-01T05:01:17.473Z,81.3
2022-08-01T05:02:16.975Z,81.4
2022-08-01T05:03:17.388Z,81.2
2022-08-01T05:04:16.814Z,81.0
2022-08-01T05:05:17.264Z,81.2
2022-08-01T05:06:16.715Z,80.9
2022-08-01T05:07:17.167Z,81.1
2022-08-01T05:08:16.611Z,80.9
2022-08-01T05:09:17.129Z,81.1
2022-08-01T05:10:16.606Z,81.2
2022-08-01T05:11:22.721Z,81.4
2022-08-01T05:12:16.517Z,81.6
2022-08-01T05:13:16.981Z,81.5
2022-08-01T05:14:16.413Z,81.4
2022-08-01T05:15:16.826Z,81.2
2022-08-01T05:16:17.254Z,81.3
2022-08-01T05:17:16.667Z,81.2
2022-08-01T05:18:28.116Z,81.0
2022-08-01T05:19:16.963Z,80.9
2022-08-01T05:20:17.450Z,80.9
2022-08-01T05:21:16.898Z,81.3
2022-08-01T05:22:17.085Z,80.8
2022-08-01T05:23:42.780Z,80.7
2022-08-01T05:24:17.044Z,80.7
2022-08-01T05:25:53.112Z,81.0
2022-08-01T05:26:17.399Z,81.2
2022-08-01T05:27:19.474Z,80.6
2022-08-01T05:28:19.408Z,80.4
2022-08-01T05:29:16.855Z,80.4
2022-08-01T05:30:17.308Z,80.2
2022-08-01T05:31:16.721Z,80.1
2022-08-01T05:32:17.354Z,80.2
2022-08-01T05:33:16.792Z,80.0
2022-08-01T05:34:17.219Z,79.8
2022-08-01T05:35:16.673Z,79.5
2022-08-01T05:36:17.129Z,79.3
2022-08-01T05:37:16.572Z,79.6
2022-08-01T05:38:17.031Z,79.3
2022-08-01T05:39:16.509Z,79.2
2022-08-01T05:40:16.957Z,79.0
2022-08-01T05:41:17.421Z,78.5
2022-08-01T05:42:17.240Z,78.9
2022-08-01T05:43:16.675Z,78.3
2022-08-01T05:44:17.105Z,77.9
2022-08-01T05:45:16.535Z,77.9
2022-08-01T05:46:16.953Z,77.3
2022-08-01T05:47:17.382Z,77.5
2022-08-01T05:48:16.832Z,77.4
2022-08-01T05:49:17.423Z,76.8
2022-08-01T05:50:16.930Z,77.1
2022-08-01T05:51:17.381Z,77.3
2022-08-01T05:52:16.805Z,77.4
2022-08-01T05:53:17.254Z,76.4
2022-08-01T05:54:16.734Z,76.4
2022-08-01T05:55:17.182Z,76.2
2022-08-01T05:56:16.634Z,75.9
2022-08-01T05:57:17.492Z,75.6
2022-08-01T05:58:16.931Z,75.4
2022-08-01T05:59:17.354Z,75.2
2022-08-01T06:00:16.777Z,75.1
2022-08-01T06:01:17.233Z,75.2
2022-08-01T06:02:16.730Z,74.9
2022-08-01T06:03:17.221Z,74.9
2022-08-01T06:04:16.670Z,75.0
2022-08-01T06:05:17.104Z,74.9
2022-08-01T06:06:16.570Z,74.6
2022-08-01T06:07:17.049Z,74.7
2022-08-01T06:08:16.505Z,74.6
2022-08-01T06:09:16.954Z,74.9
2022-08-01T06:10:17.465Z,75.1
2022-08-01T06:11:16.915Z,75.0
2022-08-01T06:12:17.211Z,74.9
2022-08-01T06:13:16.646Z,74.6
2022-08-01T06:14:17.067Z,74.8
2022-08-01T06:15:16.483Z,75.0
2022-08-01T06:16:16.905Z,75.0
2022-08-01T06:17:19.674Z,75.0
2022-08-01T06:18:17.113Z,74.9
2022-08-01T06:19:16.548Z,75.2
2022-08-01T06:20:16.998Z,75.5
2022-08-01T06:21:16.463Z,75.1
2022-08-01T06:22:17.347Z,74.6
2022-08-01T06:23:31.718Z,74.7
2022-08-01T06:24:17.183Z,74.9
2022-08-01T06:25:21.267Z,75.0
2022-08-01T06:26:16.962Z,75.1
2022-08-01T06:27:22.715Z,75.2
2022-08-01T06:28:17.255Z,75.7
2022-08-01T06:29:16.671Z,75.1
2022-08-01T06:30:17.120Z,74.9
2022-08-01T06:31:16.582Z,75.1
2022-08-01T06:32:27.275Z,75.2
2022-08-01T06:33:16.968Z,75.3
2022-08-01T06:34:17.421Z,75.2
2022-08-01T06:35:16.910Z,75.3
2022-08-01T06:36:17.365Z,75.5
2022-08-01T06:37:16.833Z,75.1
2022-08-01T06:38:17.265Z,75.1
2022-08-01T06:39:16.714Z,74.9
2022-08-01T06:40:17.770Z,74.8
2022-08-01T06:41:17.191Z,74.8
2022-08-01T06:42:17.333Z,74.9
2022-08-01T06:43:16.746Z,74.8
2022-08-01T06:44:17.179Z,74.9
2022-08-01T06:45:16.642Z,75.0
2022-08-01T06:46:17.060Z,74.9
2022-08-01T06:47:16.500Z,74.8
2022-08-01T06:48:16.967Z,74.9
2022-08-01T06:49:17.509Z,74.9
2022-08-01T06:50:16.997Z,74.7
2022-08-01T06:51:16.490Z,74.7
2022-08-01T06:52:17.090Z,74.6
2022-08-01T06:53:16.544Z,74.7
2022-08-01T06:54:17.009Z,74.6
2022-08-01T06:55:16.457Z,74.6
2022-08-01T06:56:16.918Z,74.7
2022-08-01T06:57:17.356Z,74.9
2022-08-01T06:58:16.771Z,74.6
2022-08-01T06:59:17.227Z,74.8
2022-08-01T07:00:16.644Z,74.6
2022-08-01T07:01:18.203Z,74.7
2022-08-01T07:02:17.125Z,74.5
2022-08-01T07:03:16.588Z,74.4
2022-08-01T07:04:17.054Z,74.4
2022-08-01T07:05:16.515Z,74.6
2022-08-01T07:06:16.989Z,74.7
2022-08-01T07:07:16.451Z,74.4
2022-08-01T07:08:16.907Z,74.3
2022-08-01T07:09:17.393Z,74.4
2022-08-01T07:10:16.839Z,74.2
2022-08-01T07:11:17.266Z,74.3
2022-08-01T07:12:16.899Z,74.0
2022-08-01T07:13:17.331Z,74.0
2022-08-01T07:14:16.785Z,74.0
2022-08-01T07:15:17.256Z,73.5
2022-08-01T07:16:16.681Z,73.4
2022-08-01T07:17:17.133Z,73.8
2022-08-01T07:18:16.604Z,73.7
2022-08-01T07:19:17.090Z,73.8
2022-08-01T07:20:16.966Z,73.8
2022-08-01T07:21:38.395Z,73.8
2022-08-01T07:22:23.746Z,73.7
2022-08-01T07:23:22.839Z,73.6
2022-08-01T07:24:19.667Z,73.4
2022-08-01T07:25:16.520Z,73.1
2022-08-01T07:26:16.964Z,72.6
2022-08-01T07:27:25.895Z,72.6
2022-08-01T07:28:16.637Z,72.0
2022-08-01T07:29:17.049Z,72.2
2022-08-01T07:30:16.503Z,72.1
2022-08-01T07:31:16.984Z,71.8
2022-08-01T07:32:18.413Z,71.6
2022-08-01T07:33:16.878Z,71.4
2022-08-01T07:34:17.336Z,71.4
2022-08-01T07:35:16.824Z,70.9
2022-08-01T07:36:17.273Z,70.6
2022-08-01T07:37:16.721Z,70.4
2022-08-01T07:38:17.183Z,69.9
2022-08-01T07:39:16.821Z,69.6
2022-08-01T07:40:17.285Z,67.1
2022-08-01T07:41:16.701Z,65.3
2022-08-01T07:42:17.283Z,64.3
2022-08-01T07:43:16.694Z,63.5
2022-08-01T07:44:17.140Z,63.0
2022-08-01T07:45:16.571Z,62.5
2022-08-01T07:46:17.017Z,61.8
2022-08-01T07:47:16.504Z,60.0
2022-08-01T07:48:16.999Z,61.5
2022-08-01T07:49:16.670Z,61.3
2022-08-01T07:50:17.195Z,60.5
2022-08-01T07:51:16.663Z,61.2
2022-08-01T07:52:17.752Z,61.6
2022-08-01T07:53:17.353Z,61.6
2022-08-01T07:54:16.771Z,61.8
2022-08-01T07:55:17.246Z,61.2
2022-08-01T07:56:16.681Z,59.4
2022-08-01T07:57:17.107Z,58.0
2022-08-01T07:58:16.522Z,57.8
2022-08-01T07:59:26.436Z,58.6
2022-08-01T08:00:16.920Z,58.8
2022-08-01T08:01:17.460Z,59.8
2022-08-01T08:02:17.539Z,58.0
2022-08-01T08:03:17.148Z,57.7
2022-08-01T08:04:16.633Z,57.8
2022-08-01T08:05:51.401Z,58.4
2022-08-01T08:06:16.577Z,58.1
2022-08-01T08:07:17.040Z,57.7
2022-08-01T08:08:16.498Z,57.1
2022-08-01T08:09:16.925Z,57.0
2022-08-01T08:10:17.422Z,59.0
2022-08-01T08:11:16.845Z,60.3
2022-08-01T08:12:16.567Z,57.9
2022-08-01T08:13:18.818Z,58.7
2022-08-01T08:14:17.365Z,58.1
2022-08-01T08:15:16.801Z,57.1
2022-08-01T08:16:17.276Z,55.8
2022-08-01T08:17:16.750Z,54.1
2022-08-01T08:18:17.215Z,55.6
2022-08-01T08:19:16.723Z,56.4
2022-08-01T08:20:17.168Z,55.2
2022-08-01T08:21:16.655Z,55.3
2022-08-01T08:22:17.142Z,55.2
2022-08-01T08:23:41.280Z,55.4
2022-08-01T08:24:17.031Z,55.3
2022-08-01T08:25:16.506Z,54.8
2022-08-01T08:26:16.933Z,55.0
2022-08-01T08:27:19.351Z,56.3
2022-08-01T08:28:16.883Z,56.1
2022-08-01T08:29:17.542Z,56.4
2022-08-01T08:30:16.998Z,56.1
2022-08-01T08:31:51.134Z,54.5
2022-08-01T08:32:16.906Z,53.7
2022-08-01T08:33:17.366Z,52.2
2022-08-01T08:34:16.855Z,51.3
2022-08-01T08:35:40.204Z,51.2
2022-08-01T08:36:17.874Z,52.1
2022-08-01T08:37:17.368Z,53.3
2022-08-01T08:38:16.820Z,54.3
2022-08-01T08:39:20.218Z,55.8
2022-08-01T08:40:17.116Z,56.1
2022-08-01T08:41:21.500Z,56.6
2022-08-01T08:42:17.021Z,57.4
2022-08-01T08:43:16.437Z,56.3
2022-08-01T08:44:16.890Z,56.2
2022-08-01T08:45:17.386Z,55.5
2022-08-01T08:46:16.875Z,55.9
2022-08-01T08:47:20.942Z,56.5
2022-08-01T08:48:18.641Z,56.7
2022-08-01T08:49:17.551Z,58.0
2022-08-01T08:50:17.093Z,58.2
2022-08-01T08:51:16.554Z,56.7
2022-08-01T08:52:17.022Z,57.0
2022-08-01T08:53:19.244Z,55.8
2022-08-01T08:54:16.741Z,54.9
2022-08-01T08:55:17.421Z,53.6
2022-08-01T08:56:17.203Z,53.7
2022-08-01T08:57:16.678Z,53.6
2022-08-01T08:58:17.111Z,52.5
2022-08-01T08:59:16.529Z,52.6
2022-08-01T09:00:16.981Z,52.1
2022-08-01T09:01:16.439Z,52.7
2022-08-01T09:02:17.087Z,52.7
2022-08-01T09:03:16.690Z,52.5
2022-08-01T09:04:17.204Z,51.5
2022-08-01T09:05:20.110Z,50.9
2022-08-01T09:06:16.691Z,50.5
2022-08-01T09:07:17.125Z,48.8
2022-08-01T09:08:16.544Z,48.5
2022-08-01T09:09:18.021Z,48.3
2022-08-01T09:10:16.519Z,50.2
2022-08-01T09:11:23.411Z,51.0
2022-08-01T09:12:16.616Z,52.0
2022-08-01T09:13:17.032Z,53.6
2022-08-01T09:14:16.538Z,53.5
2022-08-01T09:15:17.044Z,54.1
2022-08-01T09:16:16.547Z,54.6
2022-08-01T09:17:16.990Z,54.4
2022-08-01T09:18:16.479Z,55.2
2022-08-01T09:19:39.222Z,55.1
2022-08-01T09:20:17.239Z,55.7
2022-08-01T09:21:16.739Z,55.2
2022-08-01T09:22:16.612Z,53.8
2022-08-01T09:23:17.053Z,51.7
2022-08-01T09:24:16.780Z,51.0
2022-08-01T09:25:17.383Z,50.9
2022-08-01T09:26:21.194Z,49.9
2022-08-01T09:27:16.628Z,50.0
2022-08-01T09:28:17.055Z,50.0
2022-08-01T09:29:34.681Z,50.3
2022-08-01T09:30:23.588Z,50.7
2022-08-01T09:31:19.360Z,50.7
2022-08-01T09:32:16.940Z,51.1
2022-08-01T09:33:21.931Z,51.5
2022-08-01T09:34:20.087Z,52.7
2022-08-01T09:35:16.569Z,53.7
2022-08-01T09:36:19.172Z,54.1
2022-08-01T09:37:16.612Z,54.3
2022-08-01T09:38:17.111Z,54.9
2022-08-01T09:39:16.567Z,55.2
2022-08-01T09:40:17.022Z,55.5
2022-08-01T09:41:19.633Z,56.9
2022-08-01T09:42:16.608Z,57.2
2022-08-01T09:43:17.039Z,58.1
2022-08-01T09:44:17.085Z,59.3
2022-08-01T09:45:23.970Z,58.8
2022-08-01T09:46:16.444Z,58.4
2022-08-01T09:47:16.919Z,58.5
2022-08-01T09:48:17.384Z,58.5
2022-08-01T09:49:17.286Z,57.4
2022-08-01T09:50:16.773Z,56.9
2022-08-01T09:51:58.674Z,57.4
2022-08-01T09:52:16.675Z,57.6
2022-08-01T09:53:29.874Z,58.8
2022-08-01T09:54:17.208Z,58.4
2022-08-01T09:55:16.674Z,58.6
2022-08-01T09:56:17.097Z,60.0
2022-08-01T09:57:16.518Z,58.3
2022-08-01T09:58:16.998Z,58.3
2022-08-01T09:59:17.445Z,58.3
2022-08-01T10:00:43.002Z,58.9
2022-08-01T10:01:16.487Z,59.2
2022-08-01T10:02:21.329Z,59.3
2022-08-01T10:03:18.274Z,60.1
2022-08-01T10:04:17.469Z,60.6
2022-08-01T10:05:21.476Z,60.3
2022-08-01T10:06:17.772Z,60.2
2022-08-01T10:07:17.191Z,60.3
2022-08-01T10:08:23.462Z,60.6
2022-08-01T10:09:16.917Z,58.8
2022-08-01T10:10:17.618Z,58.1
2022-08-01T10:11:17.277Z,56.0
2022-08-01T10:12:16.942Z,55.3
2022-08-01T10:13:17.393Z,55.0
2022-08-01T10:14:18.588Z,54.1
2022-08-01T10:15:18.402Z,53.7
2022-08-01T10:16:16.971Z,53.0
2022-08-01T10:17:19.994Z,52.1
2022-08-01T10:18:26.584Z,51.6
2022-08-01T10:19:19.047Z,52.2
2022-08-01T10:20:29.070Z,51.6
2022-08-01T10:21:53.253Z,51.4
2022-08-01T10:22:17.374Z,50.6
2022-08-01T10:23:16.809Z,49.4
2022-08-01T10:24:19.149Z,49.6
2022-08-01T10:25:41.549Z,50.1
2022-08-01T10:26:17.284Z,50.4
2022-08-01T10:27:24.615Z,51.1
2022-08-01T10:28:24.254Z,51.0
2022-08-01T10:29:46.950Z,50.9
2022-08-01T10:30:24.499Z,51.8
2022-08-01T10:31:17.090Z,53.4
2022-08-01T10:32:17.000Z,53.3
2022-08-01T10:33:50.169Z,52.7
2022-08-01T10:34:16.984Z,53.3
2022-08-01T10:35:24.156Z,53.4
2022-08-01T10:36:17.271Z,52.3
2022-08-01T10:37:17.083Z,52.7
2022-08-01T10:38:17.204Z,52.9
2022-08-01T10:39:20.323Z,52.4
2022-08-01T10:40:30.208Z,52.4
2022-08-01T10:41:17.243Z,52.7
2022-08-01T10:42:16.520Z,52.9
2022-08-01T10:43:22.303Z,52.8
2022-08-01T10:44:16.842Z,53.2
2022-08-01T10:45:18.766Z,53.6
2022-08-01T10:46:17.743Z,54.6
2022-08-01T10:47:24.156Z,54.5
2022-08-01T10:48:21.245Z,54.7
2022-08-01T10:49:16.866Z,55.0
2022-08-01T10:50:26.374Z,55.8
2022-08-01T10:51:19.159Z,55.7
2022-08-01T10:52:19.846Z,56.3
2022-08-01T10:53:31.332Z,56.2
2022-08-01T10:54:16.735Z,56.5
2022-08-01T10:55:17.165Z,56.2
2022-08-01T10:56:16.971Z,56.3
2022-08-01T10:57:16.942Z,57.2
2022-08-01T10:58:18.067Z,57.1
2022-08-01T10:59:49.514Z,57.1
2022-08-01T11:00:16.570Z,57.2
2022-08-01T11:01:17.793Z,57.2
2022-08-01T11:02:17.383Z,57.2
2022-08-01T11:03:16.831Z,58.1
2022-08-01T11:04:18.372Z,57.4
2022-08-01T11:05:18.365Z,57.5
2022-08-01T11:06:16.543Z,57.5
2022-08-01T11:07:16.983Z,58.3
2022-08-01T11:08:16.463Z,59.4
2022-08-01T11:09:17.054Z,59.8
2022-08-01T11:10:16.471Z,60.5
2022-08-01T11:11:16.912Z,60.3
2022-08-01T11:12:25.270Z,60.0
2022-08-01T11:13:16.779Z,59.8
2022-08-01T11:14:26.609Z,59.4
2022-08-01T11:15:30.766Z,59.6
2022-08-01T11:16:22.694Z,59.6
2022-08-01T11:17:16.608Z,59.7
2022-08-01T11:18:29.800Z,59.6
2022-08-01T11:19:16.544Z,60.0
2022-08-01T11:20:17.627Z,59.5
2022-08-01T11:21:56.482Z,59.9
2022-08-01T11:22:16.981Z,59.7
2022-08-01T11:23:16.405Z,60.6
2022-08-01T11:24:17.457Z,60.4
2022-08-01T11:25:18.469Z,60.3
2022-08-01T11:26:17.829Z,59.9
2022-08-01T11:27:20.667Z,59.8
2022-08-01T11:28:30.313Z,59.9
2022-08-01T11:29:22.511Z,59.1
2022-08-01T11:30:21.481Z,59.4
2022-08-01T11:31:17.245Z,58.6
2022-08-01T11:32:16.462Z,57.3
2022-08-01T11:33:16.921Z,57.5
2022-08-01T11:34:17.349Z,57.5
2022-08-01T11:35:17.307Z,58.3
2022-08-01T11:36:16.779Z,58.1
2022-08-01T11:37:17.819Z,58.8
2022-08-01T11:38:17.277Z,58.2
2022-08-01T11:39:16.714Z,58.3
2022-08-01T11:40:17.574Z,58.1
2022-08-01T11:41:17.085Z,57.3
2022-08-01T11:42:17.618Z,55.9
2022-08-01T11:43:17.069Z,55.4
2022-08-01T11:44:16.551Z,55.8
2022-08-01T11:45:18.865Z,56.1
2022-08-01T11:46:17.387Z,56.1
2022-08-01T11:47:21.159Z,56.5
2022-08-01T11:48:17.023Z,56.0
2022-08-01T11:49:19.209Z,55.4
2022-08-01T11:50:18.753Z,54.8
2022-08-01T11:51:25.806Z,53.5
2022-08-01T11:52:17.234Z,53.8
2022-08-01T11:53:22.132Z,53.8
2022-08-01T11:54:34.973Z,53.9
2022-08-01T11:55:17.320Z,54.4
2022-08-01T11:56:17.800Z,57.0
2022-08-01T11:57:17.249Z,58.9
2022-08-01T11:58:27.631Z,59.0
2022-08-01T11:59:21.453Z,58.8
2022-08-01T12:00:18.173Z,59.4
2022-08-01T12:01:18.382Z,59.2
2022-08-01T12:02:30.001Z,59.1
2022-08-01T12:03:33.294Z,59.5
2022-08-01T12:04:17.166Z,59.3
2022-08-01T12:05:17.868Z,58.9
2022-08-01T12:06:17.301Z,59.1
2022-08-01T12:07:16.718Z,59.3
2022-08-01T12:08:17.165Z,59.9
2022-08-01T12:09:16.610Z,59.8
2022-08-01T12:10:17.156Z,59.4
2022-08-01T12:11:16.633Z,59.4
2022-08-01T12:12:17.344Z,58.6
2022-08-01T12:13:16.808Z,58.7
2022-08-01T12:14:17.309Z,59.1
2022-08-01T12:15:16.767Z,59.5
2022-08-01T12:16:17.239Z,59.1
2022-08-01T12:17:16.721Z,59.1
2022-08-01T12:18:17.146Z,59.4
2022-08-01T12:19:16.569Z,60.3
2022-08-01T12:20:16.982Z,59.6
2022-08-01T12:21:16.414Z,60.4
2022-08-01T12:22:16.779Z,59.6
2022-08-01T12:23:17.197Z,59.7
2022-08-01T12:24:16.615Z,60.0
2022-08-01T12:25:17.055Z,60.0
2022-08-01T12:26:32.217Z,59.6
2022-08-01T12:27:16.873Z,59.4
2022-08-01T12:28:17.337Z,59.8
2022-08-01T12:29:16.813Z,59.8
2022-08-01T12:30:17.320Z,59.6
2022-08-01T12:31:16.809Z,60.0
2022-08-01T12:32:31.905Z,60.2
2022-08-01T12:33:17.096Z,60.4
2022-08-01T12:34:16.551Z,60.2
2022-08-01T12:35:18.743Z,60.9
2022-08-01T12:36:17.175Z,60.8
2022-08-01T12:37:17.798Z,61.0
2022-08-01T12:38:17.213Z,61.3
2022-08-01T12:39:16.667Z,61.2
2022-08-01T12:40:17.086Z,60.9
2022-08-01T12:41:16.545Z,60.4
2022-08-01T12:42:17.107Z,60.5
2022-08-01T12:43:29.326Z,60.7
2022-08-01T12:44:16.970Z,60.9
2022-08-01T12:45:17.465Z,60.9
2022-08-01T12:46:16.914Z,60.9
2022-08-01T12:47:17.371Z,61.1
2022-08-01T12:48:16.843Z,61.5
2022-08-01T12:49:17.466Z,61.8
2022-08-01T12:50:16.914Z,60.9
2022-08-01T12:51:17.327Z,61.3
2022-08-01T12:52:17.165Z,61.6
2022-08-01T12:53:17.117Z,61.7
2022-08-01T12:54:16.588Z,61.4
2022-08-01T12:55:17.040Z,61.0
2022-08-01T12:56:16.479Z,60.7
2022-08-01T12:57:16.919Z,60.4
2022-08-01T12:58:17.372Z,60.2
2022-08-01T12:59:16.831Z,59.5
2022-08-01T13:00:17.346Z,59.5
2022-08-01T13:01:16.999Z,59.9
2022-08-01T13:02:17.251Z,60.0
2022-08-01T13:03:16.698Z,59.8
2022-08-01T13:04:17.127Z,60.1
2022-08-01T13:05:16.592Z,60.0
2022-08-01T13:06:18.298Z,60.4
2022-08-01T13:07:16.756Z,60.9
2022-08-01T13:08:17.172Z,60.5
2022-08-01T13:09:16.629Z,60.8
2022-08-01T13:10:17.062Z,59.7
2022-08-01T13:11:18.019Z,59.7
2022-08-01T13:12:16.957Z,59.4
2022-08-01T13:13:28.926Z,59.3
2022-08-01T13:14:17.424Z,59.1
2022-08-01T13:15:16.898Z,59.2
2022-08-01T13:16:43.160Z,59.1
2022-08-01T13:17:16.531Z,58.8
2022-08-01T13:18:16.954Z,58.6